Time;durP1;ratioP1;P1;durP2;ratioP2;P2;SDS_P1;SDS_P2;PMS_P1;PMS_P2;Temp;Humidity;BMP_temperature;BMP_pressure;BME280_temperature;BME280_humidity;BME280_pressure;Samples;Min_cycle;Max_cycle;Signal;HPM_P1;HPM_P2
2022/07/29 00:01:40;;;;;;;7.75;3.58;;;20.90;91.00;;;;;;5012164;28;20519;-72
2022/07/29 00:04:05;;;;;;;9.10;3.70;;;20.70;91.40;;;;;;5012830;28;20381;-72
2022/07/29 00:06:31;;;;;;;7.97;3.80;;;20.90;90.90;;;;;;5012583;28;20033;-71
2022/07/29 00:08:57;;;;;;;8.73;3.58;;;20.80;91.30;;;;;;5012670;28;20022;-71
2022/07/29 00:11:22;;;;;;;7.13;3.63;;;20.60;91.60;;;;;;5006155;28;20036;-71
2022/07/29 00:13:48;;;;;;;6.07;3.60;;;20.60;91.70;;;;;;5011644;28;20148;-72
2022/07/29 00:16:13;;;;;;;8.02;3.50;;;20.60;91.60;;;;;;5012476;28;20026;-72
2022/07/29 00:18:39;;;;;;;5.82;3.60;;;20.70;91.60;;;;;;5012406;28;20040;-71
2022/07/29 00:21:04;;;;;;;6.68;3.65;;;20.60;91.80;;;;;;5011834;28;20064;-72
2022/07/29 00:23:30;;;;;;;7.15;3.08;;;20.70;92.20;;;;;;5012425;28;20037;-72
2022/07/29 00:25:55;;;;;;;7.30;3.30;;;20.40;92.30;;;;;;5011613;28;20034;-72
2022/07/29 00:28:21;;;;;;;9.40;3.30;;;20.50;91.60;;;;;;5012139;28;20519;-71
2022/07/29 00:30:47;;;;;;;6.63;3.08;;;20.70;91.90;;;;;;5011753;28;20030;-71
2022/07/29 00:33:12;;;;;;;8.23;3.35;;;20.60;91.90;;;;;;5012262;28;20026;-72
2022/07/29 00:35:44;;;;;;;4.70;3.35;;;20.30;92.20;;;;;;5012147;28;20547;-72
2022/07/29 00:38:14;;;;;;;7.07;2.70;;;20.20;92.60;;;;;;5012243;28;20484;-72
2022/07/29 00:40:40;;;;;;;4.72;2.67;;;20.40;91.90;;;;;;5011458;28;20440;-72
2022/07/29 00:43:05;;;;;;;6.30;3.35;;;20.70;92.20;;;;;;5010787;28;20037;-72
2022/07/29 00:45:31;;;;;;;5.68;2.53;;;20.60;92.20;;;;;;5012003;28;20030;-72
2022/07/29 00:47:57;;;;;;;6.03;3.25;;;20.80;91.30;;;;;;5011895;28;20026;-72
2022/07/29 00:50:24;;;;;;;5.30;2.72;;;20.60;91.80;;;;;;4999699;28;20032;-72
2022/07/29 00:52:51;;;;;;;5.03;2.60;;;20.60;92.20;;;;;;5010638;28;20064;-73
2022/07/29 00:55:17;;;;;;;6.10;2.88;;;20.60;92.00;;;;;;5007515;28;20026;-72
2022/07/29 00:57:44;;;;;;;7.60;3.13;;;20.60;92.30;;;;;;5010261;28;20041;-72
2022/07/29 01:00:12;;;;;;;6.18;2.65;;;20.30;92.60;;;;;;5011748;28;20042;-72
2022/07/29 01:02:38;;;;;;;5.40;2.70;;;20.30;92.60;;;;;;5010406;28;20022;-72
2022/07/29 01:05:05;;;;;;;4.53;2.55;;;20.60;91.70;;;;;;5011841;28;20029;-72
2022/07/29 01:07:33;;;;;;;6.20;2.50;;;20.50;92.30;;;;;;5017631;28;20472;-72
2022/07/29 01:10:01;;;;;;;5.57;3.05;;;20.40;92.30;;;;;;5031544;28;20029;-72
2022/07/29 01:12:32;;;;;;;4.68;2.60;;;20.20;92.60;;;;;;5030851;28;20056;-73
2022/07/29 01:14:59;;;;;;;4.18;2.47;;;20.20;92.60;;;;;;5031502;28;20476;-73
2022/07/29 01:17:33;;;;;;;4.20;2.55;;;20.10;92.30;;;;;;5031580;28;20040;-73
2022/07/29 01:20:11;;;;;;;6.47;2.70;;;20.30;92.10;;;;;;5030347;28;20557;-73
2022/07/29 01:23:19;;;;;;;3.42;2.20;;;20.40;92.10;;;;;;5031204;28;20021;-73
2022/07/29 01:26:09;;;;;;;5.32;2.65;;;20.50;91.90;;;;;;5031239;28;20030;-73
2022/07/29 01:29:00;;;;;;;4.70;2.35;;;20.50;92.00;;;;;;5030065;28;20022;-73
2022/07/29 01:32:01;;;;;;;3.78;2.08;;;20.40;91.80;;;;;;5030980;28;20372;-74
2022/07/29 01:34:58;;;;;;;5.20;2.28;;;20.40;92.20;;;;;;5014434;28;20516;-75
2022/07/29 01:37:26;;;;;;;5.88;2.33;;;20.60;91.60;;;;;;5006074;28;20554;-73
2022/07/29 01:39:56;;;;;;;6.18;2.13;;;20.60;92.00;;;;;;5015354;28;20030;-73
2022/07/29 01:42:35;;;;;;;6.47;2.42;;;20.50;92.10;;;;;;5010495;28;20137;-74
2022/07/29 01:45:12;;;;;;;5.15;2.60;;;20.50;92.00;;;;;;5003246;28;20105;-73
2022/07/29 01:47:54;;;;;;;3.78;2.38;;;20.40;91.90;;;;;;5017715;28;20156;-73
2022/07/29 01:50:23;;;;;;;5.18;2.17;;;20.50;91.90;;;;;;5021662;28;20105;-72
2022/07/29 01:53:00;;;;;;;4.68;2.28;;;20.50;91.90;;;;;;5013817;28;20026;-73
2022/07/29 01:55:31;;;;;;;6.35;2.42;;;20.50;92.30;;;;;;5014950;28;20709;-73
2022/07/29 01:57:58;;;;;;;4.00;2.40;;;20.40;92.40;;;;;;5015022;28;20033;-73
2022/07/29 02:00:26;;;;;;;4.45;2.35;;;20.40;92.40;;;;;;5028387;28;20025;-72
2022/07/29 02:02:54;;;;;;;4.97;2.25;;;20.30;92.80;;;;;;5033471;28;20029;-73
2022/07/29 02:05:22;;;;;;;6.72;2.33;;;20.40;92.50;;;;;;5034673;28;20510;-72
2022/07/29 02:07:50;;;;;;;3.97;2.33;;;20.30;93.00;;;;;;5034710;28;20017;-72
2022/07/29 02:10:20;;;;;;;5.15;2.38;;;20.20;93.10;;;;;;5030651;28;20107;-72
2022/07/29 02:12:48;;;;;;;2.95;2.10;;;20.20;93.40;;;;;;5014916;28;20472;-72
2022/07/29 02:15:16;;;;;;;3.80;2.22;;;20.10;93.30;;;;;;5014721;28;20017;-72
2022/07/29 02:17:45;;;;;;;5.13;2.20;;;20.00;93.50;;;;;;5014603;28;20034;-72
2022/07/29 02:20:12;;;;;;;3.75;2.28;;;20.10;93.20;;;;;;5014334;28;20026;-72
2022/07/29 02:22:39;;;;;;;6.65;2.72;;;20.00;93.60;;;;;;5012912;28;20026;-72
2022/07/29 02:25:07;;;;;;;4.63;2.45;;;19.80;94.10;;;;;;5014295;28;20052;-72
2022/07/29 02:27:34;;;;;;;4.53;2.40;;;19.80;93.90;;;;;;5014647;28;20110;-72
2022/07/29 02:30:02;;;;;;;4.45;2.50;;;20.00;93.20;;;;;;5014416;28;20374;-72
2022/07/29 02:32:29;;;;;;;5.93;2.60;;;19.90;93.70;;;;;;5024381;28;20053;-72
2022/07/29 02:34:56;;;;;;;4.47;2.50;;;19.80;93.80;;;;;;5026788;28;20038;-72
2022/07/29 02:37:22;;;;;;;4.60;2.65;;;19.90;93.70;;;;;;5020698;28;20046;-72
2022/07/29 02:39:51;;;;;;;5.28;2.30;;;20.00;93.50;;;;;;5014257;28;20026;-72
2022/07/29 02:42:18;;;;;;;6.80;2.55;;;20.10;93.50;;;;;;5013744;28;20053;-73
2022/07/29 02:44:44;;;;;;;5.07;2.60;;;20.00;93.60;;;;;;5014143;28;20508;-73
2022/07/29 02:47:18;;;;;;;2.90;2.08;;;20.00;93.90;;;;;;5013943;28;20784;-73
2022/07/29 02:49:53;;;;;;;5.93;2.72;;;20.00;93.70;;;;;;5013543;28;20017;-73
2022/07/29 02:52:32;;;;;;;3.25;2.40;;;20.10;93.70;;;;;;5013284;28;20100;-73
2022/07/29 02:55:16;;;;;;;4.38;2.65;;;19.90;93.70;;;;;;5014033;28;20481;-73
2022/07/29 02:57:49;;;;;;;5.03;2.92;;;19.90;93.90;;;;;;5013826;28;20113;-72
2022/07/29 03:00:15;;;;;;;8.73;2.65;;;19.70;94.30;;;;;;5013412;28;20029;-72
2022/07/29 03:02:44;;;;;;;5.35;2.53;;;19.60;94.30;;;;;;5013868;28;20026;-73
2022/07/29 03:05:15;;;;;;;4.60;2.25;;;19.70;94.30;;;;;;5027150;28;20034;-73
2022/07/29 03:07:42;;;;;;;4.05;2.03;;;19.80;94.10;;;;;;5033521;28;20079;-73
2022/07/29 03:10:09;;;;;;;6.55;2.60;;;19.80;93.40;;;;;;5033525;28;20041;-72
2022/07/29 03:12:35;;;;;;;4.80;2.30;;;20.00;93.10;;;;;;5033012;28;20052;-72
2022/07/29 03:15:01;;;;;;;5.18;1.90;;;20.10;92.90;;;;;;5018962;28;20053;-72
2022/07/29 03:17:27;;;;;;;4.10;2.13;;;20.10;92.60;;;;;;5021386;28;20025;-72
2022/07/29 03:19:54;;;;;;;3.58;2.28;;;20.30;92.50;;;;;;5016174;28;20507;-73
2022/07/29 03:22:20;;;;;;;3.75;2.17;;;20.30;92.50;;;;;;5012920;28;20034;-73
2022/07/29 03:24:46;;;;;;;5.53;2.05;;;20.30;92.50;;;;;;5014411;28;20017;-73
2022/07/29 03:27:11;;;;;;;3.42;1.98;;;20.20;92.60;;;;;;5025555;28;20022;-74
2022/07/29 03:29:37;;;;;;;3.97;2.10;;;20.10;92.90;;;;;;5014281;28;20084;-73
2022/07/29 03:32:04;;;;;;;3.80;2.00;;;19.90;93.20;;;;;;5032486;28;20032;-74
2022/07/29 03:34:30;;;;;;;3.45;1.95;;;19.90;93.20;;;;;;5018641;28;20513;-73
2022/07/29 03:36:55;;;;;;;3.85;2.00;;;20.00;93.30;;;;;;5012207;28;20057;-73
2022/07/29 03:39:24;;;;;;;5.57;2.28;;;19.90;93.40;;;;;;5014336;28;20025;-73
2022/07/29 03:41:54;;;;;;;5.30;1.80;;;20.10;92.90;;;;;;5032266;28;20036;-73
2022/07/29 03:44:21;;;;;;;3.10;2.00;;;20.20;92.80;;;;;;5032899;28;20018;-74
2022/07/29 03:46:49;;;;;;;6.05;2.13;;;20.00;92.90;;;;;;5023987;28;20697;-74
2022/07/29 03:49:16;;;;;;;5.13;1.90;;;20.10;92.70;;;;;;5026331;28;20119;-74
2022/07/29 03:51:42;;;;;;;2.88;1.90;;;20.10;92.50;;;;;;5021751;28;20487;-74
2022/07/29 03:54:08;;;;;;;2.42;1.90;;;20.20;92.40;;;;;;5032708;28;20030;-73
2022/07/29 03:56:37;;;;;;;4.30;1.90;;;20.20;92.50;;;;;;5026707;28;20022;-73
2022/07/29 03:59:04;;;;;;;6.72;2.20;;;20.10;92.60;;;;;;5012713;28;20420;-72
2022/07/29 04:01:32;;;;;;;6.45;2.15;;;19.90;92.80;;;;;;5012278;28;20037;-73
2022/07/29 04:03:59;;;;;;;5.13;2.05;;;19.80;93.50;;;;;;5012727;28;20030;-72
2022/07/29 04:06:25;;;;;;;6.97;2.72;;;19.70;93.60;;;;;;5012614;28;20113;-74
2022/07/29 04:08:51;;;;;;;5.18;2.05;;;19.60;94.00;;;;;;5011340;28;20064;-74
2022/07/29 04:11:16;;;;;;;3.85;2.15;;;19.50;93.80;;;;;;5011930;28;20058;-73
2022/07/29 04:13:42;;;;;;;4.93;2.05;;;19.60;94.10;;;;;;5012601;28;20040;-73
2022/07/29 04:16:08;;;;;;;5.15;1.95;;;19.40;94.10;;;;;;5012601;28;20034;-73
2022/07/29 04:18:33;;;;;;;3.42;1.60;;;19.30;94.80;;;;;;5026019;28;20065;-72
2022/07/29 04:21:00;;;;;;;4.15;1.95;;;19.30;94.70;;;;;;5012044;28;20648;-73
2022/07/29 04:23:27;;;;;;;2.65;2.10;;;19.20;95.10;;;;;;5012375;28;20030;-73
2022/07/29 04:25:52;;;;;;;7.78;2.40;;;19.20;95.10;;;;;;5022499;28;20080;-73
2022/07/29 04:28:18;;;;;;;5.32;2.00;;;19.20;95.10;;;;;;5032149;28;20468;-73
2022/07/29 04:30:43;;;;;;;9.07;2.13;;;19.10;95.00;;;;;;5031540;28;20443;-73
2022/07/29 04:33:09;;;;;;;2.90;2.13;;;19.20;95.30;;;;;;5031899;28;20037;-72
2022/07/29 04:35:37;;;;;;;3.72;1.90;;;19.10;95.30;;;;;;5021889;28;20034;-72
2022/07/29 04:38:03;;;;;;;5.30;2.00;;;19.10;95.80;;;;;;5012100;28;20096;-72
2022/07/29 04:40:29;;;;;;;4.20;2.35;;;19.20;95.50;;;;;;5011831;28;20439;-72
2022/07/29 04:42:55;;;;;;;5.22;2.13;;;19.20;95.60;;;;;;5016030;28;20104;-73
2022/07/29 04:45:20;;;;;;;5.00;2.40;;;19.10;96.00;;;;;;5031823;28;20053;-73
2022/07/29 04:47:46;;;;;;;3.83;2.30;;;18.90;96.00;;;;;;5031554;28;20083;-73
2022/07/29 04:50:12;;;;;;;6.18;2.13;;;18.80;96.60;;;;;;5020747;28;20631;-73
2022/07/29 04:52:37;;;;;;;5.43;2.60;;;19.00;96.40;;;;;;5011689;28;20093;-73
2022/07/29 04:55:04;;;;;;;4.35;2.13;;;19.20;96.90;;;;;;5011987;28;20030;-73
2022/07/29 04:57:30;;;;;;;2.85;1.98;;;19.10;96.80;;;;;;5015418;28;20064;-73
2022/07/29 04:59:55;;;;;;;3.78;2.30;;;19.50;96.60;;;;;;5031688;28;20057;-73
2022/07/29 05:02:21;;;;;;;3.97;2.30;;;19.40;97.00;;;;;;5031052;28;20056;-73
2022/07/29 05:04:47;;;;;;;5.15;2.17;;;19.50;96.70;;;;;;5031584;28;20021;-74
2022/07/29 05:07:14;;;;;;;4.47;2.30;;;19.50;96.70;;;;;;5031425;28;20033;-73
2022/07/29 05:09:40;;;;;;;5.28;2.20;;;19.60;95.70;;;;;;5031600;28;20020;-73
2022/07/29 05:12:06;;;;;;;3.55;2.33;;;19.50;95.80;;;;;;5035458;28;20060;-73
2022/07/29 05:14:32;;;;;;;4.68;2.42;;;19.40;96.10;;;;;;5038171;28;20021;-73
2022/07/29 05:16:57;;;;;;;5.07;2.33;;;19.50;96.40;;;;;;5020924;28;20029;-73
2022/07/29 05:19:23;;;;;;;5.18;2.58;;;19.50;96.50;;;;;;5018413;28;20029;-73
2022/07/29 05:21:48;;;;;;;5.85;2.45;;;19.40;96.90;;;;;;5017656;28;20099;-73
2022/07/29 05:24:14;;;;;;;4.55;2.30;;;19.40;97.00;;;;;;5018245;28;20026;-73
2022/07/29 05:26:40;;;;;;;4.07;2.40;;;19.60;96.10;;;;;;5018028;28;20031;-73
2022/07/29 05:29:06;;;;;;;3.60;2.40;;;19.50;96.70;;;;;;5017343;28;20018;-73
2022/07/29 05:31:31;;;;;;;6.00;2.03;;;19.70;96.60;;;;;;5017516;28;20049;-73
2022/07/29 05:33:57;;;;;;;2.85;2.15;;;19.90;96.50;;;;;;5018234;28;20030;-73
2022/07/29 05:36:23;;;;;;;5.10;2.53;;;20.10;96.30;;;;;;5035077;28;20509;-73
2022/07/29 05:38:48;;;;;;;7.90;2.58;;;20.10;96.20;;;;;;5037767;28;20113;-73
2022/07/29 05:41:14;;;;;;;5.68;2.38;;;20.10;96.60;;;;;;5037181;28;20017;-73
2022/07/29 05:43:39;;;;;;;4.70;2.17;;;20.30;97.00;;;;;;5037897;28;20104;-73
2022/07/29 05:46:05;;;;;;;5.60;2.70;;;20.40;97.30;;;;;;5034421;28;20037;-73
2022/07/29 05:48:31;;;;;;;4.38;2.17;;;20.50;96.10;;;;;;5017912;28;20061;-73
2022/07/29 05:50:56;;;;;;;4.80;2.10;;;20.40;96.30;;;;;;5015888;28;20025;-73
2022/07/29 05:53:22;;;;;;;5.88;2.22;;;20.30;96.90;;;;;;5017944;28;20547;-73
2022/07/29 05:55:48;;;;;;;4.10;2.00;;;20.30;96.30;;;;;;5017931;28;20485;-73
2022/07/29 05:58:15;;;;;;;4.15;2.55;;;20.40;96.30;;;;;;5017866;28;20580;-73
2022/07/29 06:00:40;;;;;;;3.50;2.17;;;20.40;96.40;;;;;;5017218;28;20101;-72
2022/07/29 06:03:06;;;;;;;3.78;2.22;;;20.50;96.50;;;;;;5027478;28;20483;-73
2022/07/29 06:05:32;;;;;;;4.57;2.42;;;20.70;96.40;;;;;;5037479;28;20052;-73
2022/07/29 06:07:57;;;;;;;5.78;2.40;;;20.90;96.60;;;;;;5037742;28;20021;-73
2022/07/29 06:10:23;;;;;;;5.30;3.13;;;20.90;96.50;;;;;;5021233;28;20395;-73
2022/07/29 06:12:48;;;;;;;4.38;2.58;;;20.80;96.10;;;;;;5015969;28;20022;-74
2022/07/29 06:15:15;;;;;;;4.03;2.40;;;20.90;95.70;;;;;;5017907;28;20026;-74
2022/07/29 06:17:40;;;;;;;6.55;2.42;;;20.90;96.30;;;;;;5017772;28;20103;-73
2022/07/29 06:20:07;;;;;;;6.53;2.47;;;20.90;96.80;;;;;;5017534;28;20638;-74
2022/07/29 06:22:32;;;;;;;4.32;2.33;;;21.20;95.50;;;;;;5015248;28;20033;-73
2022/07/29 06:24:58;;;;;;;4.88;2.63;;;21.30;95.30;;;;;;5014152;28;20049;-74
2022/07/29 06:27:23;;;;;;;3.08;2.45;;;21.20;95.60;;;;;;5014505;28;20026;-73
2022/07/29 06:29:49;;;;;;;5.93;1.90;;;21.50;95.30;;;;;;5014475;28;20029;-73
2022/07/29 06:32:14;;;;;;;4.95;2.20;;;21.60;93.80;;;;;;5012642;28;20631;-73
2022/07/29 06:34:40;;;;;;;3.15;2.20;;;21.80;94.20;;;;;;5014412;28;20543;-73
2022/07/29 06:37:07;;;;;;;3.20;2.22;;;22.10;94.70;;;;;;5014287;28;20037;-73
2022/07/29 06:39:36;;;;;;;6.70;2.55;;;22.30;94.40;;;;;;5014316;28;20022;-73
2022/07/29 06:42:03;;;;;;;4.40;2.15;;;22.30;93.70;;;;;;5013655;28;20022;-74
2022/07/29 06:44:29;;;;;;;6.10;2.20;;;22.40;94.20;;;;;;5014247;28;20018;-73
2022/07/29 06:46:55;;;;;;;4.00;2.40;;;22.40;93.90;;;;;;5014133;28;20033;-74
2022/07/29 06:49:21;;;;;;;6.90;2.10;;;22.60;93.50;;;;;;5014037;28;20026;-73
2022/07/29 06:51:47;;;;;;;4.22;2.10;;;22.50;94.10;;;;;;5020622;28;20021;-73
2022/07/29 06:54:12;;;;;;;2.58;2.10;;;22.50;93.90;;;;;;5012171;28;20100;-73
2022/07/29 06:56:41;;;;;;;2.70;2.13;;;22.70;93.90;;;;;;5014005;28;20450;-74
2022/07/29 06:59:08;;;;;;;4.82;2.40;;;23.10;93.50;;;;;;5014149;28;20101;-73
2022/07/29 07:01:36;;;;;;;3.78;2.65;;;23.10;93.30;;;;;;5013383;28;20034;-73
2022/07/29 07:04:02;;;;;;;6.32;2.30;;;23.00;93.30;;;;;;5029752;28;20021;-73
2022/07/29 07:06:27;;;;;;;4.60;2.30;;;23.20;93.50;;;;;;5033665;28;20084;-73
2022/07/29 07:08:53;;;;;;;6.40;2.88;;;23.50;93.30;;;;;;5029913;28;20096;-74
2022/07/29 07:11:19;;;;;;;6.85;2.42;;;23.50;93.40;;;;;;5013533;28;20045;-73
2022/07/29 07:13:44;;;;;;;4.57;2.30;;;23.60;93.20;;;;;;5013811;28;20030;-74
2022/07/29 07:16:10;;;;;;;4.50;2.55;;;23.80;93.20;;;;;;5013932;28;20045;-73
2022/07/29 07:18:35;;;;;;;4.25;2.53;;;23.70;92.80;;;;;;5013633;28;20026;-73
2022/07/29 07:21:01;;;;;;;8.93;2.55;;;23.70;93.30;;;;;;5013184;28;20060;-73
2022/07/29 07:23:27;;;;;;;4.15;2.40;;;24.00;93.30;;;;;;5013692;28;20041;-73
2022/07/29 07:25:52;;;;;;;4.82;2.60;;;24.10;93.00;;;;;;5023802;28;20021;-74
2022/07/29 07:28:18;;;;;;;4.35;2.88;;;24.00;92.90;;;;;;5033468;28;20017;-73
2022/07/29 07:30:45;;;;;;;6.82;2.92;;;24.30;93.10;;;;;;5032813;28;20021;-73
2022/07/29 07:33:11;;;;;;;6.47;2.80;;;24.40;93.00;;;;;;5033234;28;20022;-73
2022/07/29 07:35:36;;;;;;;5.53;2.55;;;24.40;92.90;;;;;;5032792;28;20056;-73
2022/07/29 07:38:02;;;;;;;5.30;2.30;;;24.40;93.40;;;;;;5033126;28;20033;-73
2022/07/29 07:40:27;;;;;;;4.97;2.55;;;24.50;92.80;;;;;;5032550;28;20476;-74
2022/07/29 07:42:53;;;;;;;3.88;2.80;;;24.40;93.00;;;;;;5016600;28;20089;-73
2022/07/29 07:45:19;;;;;;;5.35;3.00;;;24.50;92.90;;;;;;5013163;28;20029;-73
2022/07/29 07:47:44;;;;;;;4.68;2.95;;;24.70;93.20;;;;;;5016090;28;20542;-74
2022/07/29 07:50:11;;;;;;;2.92;2.30;;;24.80;92.60;;;;;;5022645;28;20025;-73
2022/07/29 07:52:50;;;;;;;6.28;2.80;;;24.70;92.90;;;;;;5012390;28;20081;-73
2022/07/29 07:55:16;;;;;;;4.68;2.60;;;24.90;93.20;;;;;;5012629;28;20030;-73
2022/07/29 07:57:42;;;;;;;4.22;2.72;;;25.20;92.50;;;;;;5012841;28;20443;-73
2022/07/29 08:00:08;;;;;;;5.40;2.75;;;25.00;92.40;;;;;;5012939;28;20481;-74
2022/07/29 08:02:34;;;;;;;4.57;2.70;;;25.20;92.80;;;;;;5012306;28;20530;-73
2022/07/29 08:04:59;;;;;;;5.72;3.30;;;24.90;93.10;;;;;;5025339;28;20033;-73
2022/07/29 08:07:25;;;;;;;5.38;2.65;;;25.40;93.00;;;;;;5032579;28;20021;-74
2022/07/29 08:09:51;;;;;;;3.28;2.60;;;25.70;92.70;;;;;;5020350;28;20108;-73
2022/07/29 08:12:16;;;;;;;4.40;2.90;;;25.70;92.70;;;;;;5012119;28;20469;-72
2022/07/29 08:14:42;;;;;;;3.35;2.45;;;25.40;92.70;;;;;;5012766;28;20048;-73
2022/07/29 08:17:07;;;;;;;5.20;3.00;;;25.50;93.10;;;;;;5011433;28;20033;-73
2022/07/29 08:19:33;;;;;;;7.40;2.85;;;25.50;93.00;;;;;;5012644;28;20026;-73
2022/07/29 08:21:58;;;;;;;5.95;3.35;;;25.80;93.10;;;;;;5011805;28;20392;-73
2022/07/29 08:24:42;;;;;;;4.93;2.90;;;25.70;92.90;;;;;;5012554;28;20424;-72
2022/07/29 08:27:09;;;;;;;6.25;2.70;;;25.70;92.90;;;;;;5012509;28;20411;-72
2022/07/29 08:29:35;;;;;;;4.70;3.10;;;25.70;92.90;;;;;;5012438;28;20026;-72
2022/07/29 08:32:00;;;;;;;5.70;3.58;;;25.90;92.80;;;;;;5011850;28;20029;-72
2022/07/29 08:34:26;;;;;;;4.72;3.03;;;25.30;93.60;;;;;;5012326;28;20487;-72
2022/07/29 08:36:52;;;;;;;5.07;2.97;;;25.40;93.60;;;;;;5012293;28;20457;-72
2022/07/29 08:39:17;;;;;;;5.85;3.30;;;25.60;94.00;;;;;;5012572;28;20046;-72
2022/07/29 08:41:43;;;;;;;6.57;3.72;;;26.30;92.90;;;;;;5011684;28;20397;-72
2022/07/29 08:44:09;;;;;;;5.25;3.22;;;26.40;92.60;;;;;;5012316;28;20026;-72
2022/07/29 08:46:38;;;;;;;3.92;2.90;;;26.50;92.60;;;;;;5011463;28;20045;-72
2022/07/29 08:49:04;;;;;;;7.30;3.35;;;26.40;92.70;;;;;;5012039;28;20068;-73
2022/07/29 08:51:33;;;;;;;7.32;3.10;;;26.20;92.70;;;;;;5011466;28;20053;-72
2022/07/29 08:53:59;;;;;;;4.13;3.00;;;26.50;92.90;;;;;;5012151;28;20029;-72
2022/07/29 08:56:25;;;;;;;6.13;3.20;;;26.50;92.80;;;;;;5011969;28;20030;-72
2022/07/29 08:58:52;;;;;;;5.22;3.22;;;26.50;93.20;;;;;;5012006;28;20512;-72
2022/07/29 09:01:22;;;;;;;7.82;3.42;;;26.20;92.60;;;;;;5018810;28;20042;-73
2022/07/29 09:03:49;;;;;;;5.85;3.78;;;26.50;92.60;;;;;;5031665;28;20025;-73
2022/07/29 09:06:16;;;;;;;5.88;3.50;;;26.50;92.90;;;;;;5031628;28;20025;-73
2022/07/29 09:08:43;;;;;;;5.35;3.28;;;26.70;92.60;;;;;;5016460;28;20167;-73
2022/07/29 09:11:10;;;;;;;4.88;3.40;;;26.80;92.30;;;;;;5011144;28;20369;-73
2022/07/29 09:13:35;;;;;;;4.68;3.30;;;26.80;92.60;;;;;;5011855;28;20022;-73
2022/07/29 09:16:02;;;;;;;5.07;3.22;;;26.90;92.80;;;;;;5011609;28;20037;-73
2022/07/29 09:18:36;;;;;;;5.45;3.03;;;26.80;92.60;;;;;;5011931;28;20026;-73
2022/07/29 09:24:02;;;;;;;8.68;3.47;;;26.20;93.10;;;;;;5018015;28;20051;-73
2022/07/29 09:26:29;;;;;;;5.30;3.00;;;26.30;92.80;;;;;;5031416;28;20075;-73
2022/07/29 09:28:55;;;;;;;4.68;3.42;;;26.40;93.00;;;;;;5030207;28;20024;-73
2022/07/29 09:31:33;;;;;;;6.18;3.00;;;26.90;92.70;;;;;;5030893;28;20022;-73
2022/07/29 09:34:00;;;;;;;5.60;3.38;;;27.60;92.20;;;;;;5031492;28;20071;-73
2022/07/29 09:36:26;;;;;;;5.45;3.50;;;27.60;91.80;;;;;;5031390;28;20033;-73
2022/07/29 09:39:03;;;;;;;6.53;3.50;;;27.70;91.80;;;;;;5029855;28;20033;-73
2022/07/29 09:41:29;;;;;;;4.95;3.60;;;27.70;92.00;;;;;;5028732;28;20099;-73
2022/07/29 09:43:59;;;;;;;5.05;3.47;;;27.50;92.30;;;;;;5031318;28;20029;-73
2022/07/29 09:46:25;;;;;;;4.40;3.47;;;27.90;92.10;;;;;;5031114;28;20373;-73
2022/07/29 09:49:11;;;;;;;3.97;3.58;;;28.10;92.20;;;;;;5031184;28;20046;-73
2022/07/29 09:51:37;;;;;;;5.35;3.70;;;28.80;91.80;;;;;;4999773;28;20022;-73
2022/07/29 09:54:22;;;;;;;4.43;3.47;;;28.90;92.30;;;;;;5011460;28;20058;-73
2022/07/29 09:56:48;;;;;;;5.05;3.58;;;27.70;92.10;;;;;;5011678;28;20026;-73
2022/07/29 09:59:14;;;;;;;7.95;3.72;;;27.40;92.90;;;;;;5015016;28;20034;-73
2022/07/29 10:01:40;;;;;;;4.70;3.85;;;27.50;93.10;;;;;;5014669;28;20034;-73
2022/07/29 10:04:06;;;;;;;4.53;4.00;;;27.60;92.60;;;;;;5015119;28;20040;-73
2022/07/29 10:06:31;;;;;;;6.40;4.13;;;27.60;92.80;;;;;;5014923;28;20034;-73
2022/07/29 10:09:10;;;;;;;4.57;3.33;;;27.60;92.80;;;;;;5014915;28;20481;-73
2022/07/29 10:11:37;;;;;;;7.72;3.40;;;27.80;92.30;;;;;;5014334;28;20029;-73
2022/07/29 10:14:03;;;;;;;6.00;3.25;;;27.60;92.60;;;;;;5016938;28;20392;-73
2022/07/29 10:16:32;;;;;;;5.53;3.05;;;27.30;92.60;;;;;;5013649;28;20087;-73
2022/07/29 10:18:59;;;;;;;7.63;3.10;;;26.40;92.50;;;;;;5014599;28;20388;-73
2022/07/29 10:21:25;;;;;;;5.82;3.00;;;25.30;93.20;;;;;;5008918;28;20443;-73
2022/07/29 10:23:59;;;;;;;7.28;3.03;;;24.90;93.30;;;;;;5014454;28;20038;-73
2022/07/29 10:26:25;;;;;;;6.30;2.90;;;25.10;93.40;;;;;;5012320;28;20076;-73
2022/07/29 10:28:51;;;;;;;5.32;3.45;;;25.40;93.30;;;;;;5014463;28;20042;-73
2022/07/29 10:31:29;;;;;;;6.18;3.20;;;25.60;93.30;;;;;;5017523;28;20045;-73
2022/07/29 10:34:21;;;;;;;4.30;2.70;;;25.80;93.20;;;;;;5014854;28;20021;-73
2022/07/29 10:37:01;;;;;;;6.88;3.30;;;26.50;93.00;;;;;;5014531;28;20088;-73
2022/07/29 10:39:58;;;;;;;8.23;3.85;;;26.60;93.40;;;;;;5014476;28;20025;-73
2022/07/29 10:42:27;;;;;;;7.93;3.00;;;26.30;94.00;;;;;;5013779;28;20065;-73
2022/07/29 10:44:53;;;;;;;10.63;3.58;;;27.00;94.20;;;;;;5014098;28;20022;-73
2022/07/29 10:47:26;;;;;;;6.55;3.58;;;26.60;94.60;;;;;;5014183;28;20066;-74
2022/07/29 10:50:03;;;;;;;8.38;3.97;;;25.60;96.30;;;;;;5014192;28;20093;-73
2022/07/29 10:52:52;;;;;;;7.45;3.45;;;25.20;96.60;;;;;;5013717;28;20088;-73
2022/07/29 10:55:44;;;;;;;5.38;3.92;;;25.40;96.70;;;;;;5014164;28;20026;-73
2022/07/29 10:58:15;;;;;;;5.25;3.55;;;25.50;97.00;;;;;;5014277;28;20026;-73
2022/07/29 11:00:41;;;;;;;6.18;3.60;;;25.60;97.10;;;;;;5013435;28;20041;-72
2022/07/29 11:03:07;;;;;;;5.45;4.00;;;25.50;97.20;;;;;;5014279;28;20034;-73
2022/07/29 11:05:52;;;;;;;6.53;4.38;;;25.20;98.30;;;;;;5013701;28;20404;-73
2022/07/29 11:08:21;;;;;;;4.32;3.63;;;24.40;99.90;;;;;;5013760;28;20029;-73
2022/07/29 11:10:51;;;;;;;4.40;3.60;;;24.20;99.90;;;;;;5013158;28;20018;-75
2022/07/29 11:13:54;;;;;;;7.60;4.10;;;24.30;99.60;;;;;;5014235;28;20026;-77
2022/07/29 11:16:25;;;;;;;6.30;3.90;;;24.30;99.30;;;;;;5033883;28;20071;-77
2022/07/29 11:19:12;;;;;;;4.90;3.58;;;24.00;99.10;;;;;;5033615;28;20408;-76
2022/07/29 11:21:43;;;;;;;4.53;3.42;;;24.00;99.00;;;;;;5030394;28;20017;-75
2022/07/29 11:24:14;;;;;;;7.78;4.00;;;24.00;99.20;;;;;;5022552;28;20034;-76
2022/07/29 11:26:41;;;;;;;6.60;3.75;;;24.20;99.40;;;;;;5018671;28;20025;-73
2022/07/29 11:29:18;;;;;;;8.52;4.03;;;24.30;99.90;;;;;;5033353;28;20026;-72
2022/07/29 11:31:48;;;;;;;4.85;3.60;;;24.80;99.80;;;;;;5032550;28;20013;-73
2022/07/29 11:34:29;;;;;;;5.57;3.50;;;25.70;99.50;;;;;;5033227;28;20484;-72
2022/07/29 11:37:10;;;;;;;4.97;3.63;;;25.80;98.90;;;;;;5032909;28;20472;-73
2022/07/29 11:39:38;;;;;;;6.10;4.03;;;26.00;99.40;;;;;;5032908;28;20021;-73
2022/07/29 11:42:16;;;;;;;5.28;3.38;;;26.30;99.10;;;;;;5032173;28;20052;-73
2022/07/29 11:45:13;;;;;;;3.78;3.38;;;26.60;98.50;;;;;;5032899;28;20493;-73
2022/07/29 11:47:46;;;;;;;5.05;3.78;;;26.60;98.60;;;;;;5032700;28;20133;-73
2022/07/29 11:50:14;;;;;;;5.85;3.35;;;26.80;97.40;;;;;;5022169;28;20026;-73
2022/07/29 11:52:46;;;;;;;6.47;3.38;;;27.10;97.80;;;;;;5012798;28;20022;-74
2022/07/29 11:55:22;;;;;;;5.05;3.47;;;28.00;96.70;;;;;;5012906;28;20022;-73
2022/07/29 11:57:48;;;;;;;3.25;2.80;;;28.30;95.80;;;;;;5012527;28;20018;-72
2022/07/29 12:00:23;;;;;;;4.38;2.88;;;28.30;95.30;;;;;;5012455;28;20036;-73
2022/07/29 12:02:48;;;;;;;3.55;3.20;;;28.70;94.40;;;;;;5012829;28;20026;-73
2022/07/29 12:05:14;;;;;;;5.60;3.50;;;28.90;94.20;;;;;;5012756;28;20374;-73
2022/07/29 12:07:40;;;;;;;5.38;4.07;;;28.50;93.90;;;;;;5012695;28;20594;-73
2022/07/29 12:10:07;;;;;;;4.45;3.40;;;28.50;93.60;;;;;;5012696;28;20026;-73
2022/07/29 12:12:34;;;;;;;7.00;3.60;;;28.60;94.00;;;;;;5012026;28;20104;-72
2022/07/29 12:15:20;;;;;;;3.80;3.45;;;29.00;93.60;;;;;;5012629;28;20022;-73
2022/07/29 12:17:46;;;;;;;;;;;28.90;93.40;;;;;;5012653;28;20433;-73
2022/07/29 12:20:12;;;;;;;4.28;3.88;;;29.20;93.50;;;;;;5014007;28;19905;-73
2022/07/29 12:22:40;;;;;;;4.20;3.35;;;29.80;93.00;;;;;;5031619;28;20032;-73
2022/07/29 12:25:18;;;;;;;5.20;4.10;;;30.10;92.60;;;;;;5032251;28;20679;-73
2022/07/29 12:27:44;;;;;;;6.00;4.00;;;30.30;92.60;;;;;;5031984;28;20022;-73
2022/07/29 12:30:13;;;;;;;5.70;4.03;;;29.90;92.50;;;;;;5031779;28;20391;-71
2022/07/29 12:32:45;;;;;;;4.75;3.97;;;29.60;92.80;;;;;;5031828;28;20028;-73
2022/07/29 12:35:14;;;;;;;6.13;4.28;;;29.90;92.90;;;;;;5032004;28;20411;-73
2022/07/29 12:37:42;;;;;;;5.75;4.70;;;30.10;92.70;;;;;;5031957;28;20025;-72
2022/07/29 12:40:09;;;;;;;6.35;4.55;;;30.20;92.60;;;;;;5031862;28;20120;-73
2022/07/29 12:42:35;;;;;;;4.93;3.90;;;30.80;92.70;;;;;;5031417;28;20021;-72
2022/07/29 12:45:01;;;;;;;6.03;4.22;;;30.70;92.20;;;;;;5031922;28;20427;-73
2022/07/29 12:47:27;;;;;;;7.35;4.53;;;29.90;92.90;;;;;;5031450;28;20107;-73
2022/07/29 12:50:17;;;;;;;7.55;4.80;;;30.70;92.60;;;;;;5022963;28;20028;-72
2022/07/29 12:52:44;;;;;;;5.57;4.38;;;30.30;92.10;;;;;;5011208;28;20506;-73
2022/07/29 12:55:10;;;;;;;5.65;4.97;;;30.60;92.40;;;;;;5012031;28;20434;-73
2022/07/29 12:57:53;;;;;;;7.30;4.93;;;30.80;92.10;;;;;;5011789;28;20109;-73
2022/07/29 13:00:23;;;;;;;5.85;4.35;;;30.60;92.00;;;;;;5011367;28;20420;-73